createdAt,value
2022-09-03T00:00:41.946Z,0.00
2022-09-03T00:01:41.981Z,0.00
2022-09-03T00:02:41.997Z,0.00
2022-09-03T00:03:41.935Z,0.00
2022-09-03T00:04:41.900Z,0.00
2022-09-03T00:05:41.886Z,0.00
2022-09-03T00:06:41.863Z,0.00
2022-09-03T00:07:41.878Z,2.00
2022-09-03T00:08:41.903Z,1.00
2022-09-03T00:09:41.852Z,0.00
2022-09-03T00:10:41.852Z,0.00
2022-09-03T00:11:41.828Z,0.00
2022-09-03T00:12:41.817Z,0.00
2022-09-03T00:13:41.803Z,0.00
2022-09-03T00:14:41.817Z,0.00
2022-09-03T00:15:41.843Z,0.00
2022-09-03T00:16:41.779Z,0.00
2022-09-03T00:17:41.785Z,0.00
2022-09-03T00:18:41.752Z,0.00
2022-09-03T00:19:41.772Z,0.00
2022-09-03T00:20:41.737Z,0.00
2022-09-03T00:21:41.723Z,0.00
2022-09-03T00:22:41.703Z,0.00
2022-09-03T00:23:41.708Z,0.00
2022-09-03T00:24:41.707Z,0.00
2022-09-03T00:25:41.689Z,0.00
2022-09-03T00:26:41.673Z,0.00
2022-09-03T00:27:41.668Z,0.00
2022-09-03T00:28:41.667Z,0.00
2022-09-03T00:29:41.785Z,0.00
2022-09-03T00:30:41.648Z,0.00
2022-09-03T00:31:41.729Z,0.00
2022-09-03T00:32:41.610Z,0.00
2022-09-03T00:33:41.597Z,0.00
2022-09-03T00:34:41.602Z,0.00
2022-09-03T00:35:41.589Z,0.00
2022-09-03T00:36:41.685Z,0.00
2022-09-03T00:37:41.573Z,0.00
2022-09-03T00:38:41.548Z,0.00
2022-09-03T00:39:41.613Z,0.00
2022-09-03T00:40:41.520Z,0.00
2022-09-03T00:41:41.560Z,0.00
2022-09-03T00:42:41.529Z,0.00
2022-09-03T00:43:41.497Z,0.00
2022-09-03T00:44:41.513Z,0.00
2022-09-03T00:45:45.131Z,0.00
2022-09-03T00:46:41.517Z,0.00
2022-09-03T00:47:41.461Z,0.00
2022-09-03T00:48:41.500Z,0.00
2022-09-03T00:49:41.433Z,0.00
2022-09-03T00:50:41.429Z,0.00
2022-09-03T00:51:41.424Z,0.00
2022-09-03T00:52:41.402Z,0.00
2022-09-03T00:53:41.391Z,0.00
2022-09-03T00:54:41.939Z,0.00
2022-09-03T00:55:41.397Z,0.00
2022-09-03T00:56:41.352Z,0.00
2022-09-03T00:57:41.349Z,0.00
2022-09-03T00:58:41.334Z,0.00
2022-09-03T00:59:41.332Z,0.00
2022-09-03T01:00:41.334Z,0.00
2022-09-03T01:01:41.453Z,0.00
2022-09-03T01:02:41.417Z,0.00
2022-09-03T01:03:41.344Z,0.00
2022-09-03T01:04:41.281Z,0.00
2022-09-03T01:05:41.291Z,0.00
2022-09-03T01:06:41.259Z,0.00
2022-09-03T01:07:41.240Z,0.00
2022-09-03T01:08:41.236Z,0.00
2022-09-03T01:09:41.221Z,0.00
2022-09-03T01:10:41.218Z,0.00
2022-09-03T01:11:41.264Z,0.00
2022-09-03T01:12:41.202Z,0.00
2022-09-03T01:13:41.171Z,0.00
2022-09-03T01:14:41.187Z,0.00
2022-09-03T01:15:41.225Z,0.00
2022-09-03T01:16:41.204Z,0.00
2022-09-03T01:17:41.137Z,0.00
2022-09-03T01:18:41.138Z,0.00
2022-09-03T01:19:41.131Z,0.00
2022-09-03T01:20:41.126Z,0.00
2022-09-03T01:21:41.105Z,0.00
2022-09-03T01:22:41.092Z,0.00
2022-09-03T01:23:41.069Z,0.00
2022-09-03T01:24:41.074Z,0.00
2022-09-03T01:25:41.089Z,0.00
2022-09-03T01:26:41.050Z,0.00
2022-09-03T01:27:41.044Z,0.00
2022-09-03T01:28:41.019Z,0.00
2022-09-03T01:29:41.043Z,0.00
2022-09-03T01:30:41.106Z,0.00
2022-09-03T01:31:41.005Z,0.00
2022-09-03T01:32:41.031Z,0.00
2022-09-03T01:33:40.961Z,0.00
2022-09-03T01:34:40.978Z,0.00
2022-09-03T01:35:40.960Z,0.00
2022-09-03T01:36:41.030Z,0.00
2022-09-03T01:37:40.923Z,0.00
2022-09-03T01:38:40.976Z,0.00
2022-09-03T01:39:40.970Z,0.00
2022-09-03T01:40:40.927Z,0.00
2022-09-03T01:41:40.893Z,0.00
2022-09-03T01:42:40.885Z,0.00
2022-09-03T01:43:43.386Z,0.00
2022-09-03T01:44:40.866Z,0.00
2022-09-03T01:45:51.039Z,0.00
2022-09-03T01:46:40.938Z,0.00
2022-09-03T01:47:40.886Z,0.00
2022-09-03T01:48:40.815Z,0.00
2022-09-03T01:49:40.895Z,0.00
2022-09-03T01:50:40.801Z,0.00
2022-09-03T01:51:40.792Z,0.00
2022-09-03T01:52:40.844Z,0.00
2022-09-03T01:53:40.756Z,0.00
2022-09-03T01:54:40.771Z,0.00
2022-09-03T01:55:40.737Z,0.00
2022-09-03T01:56:40.803Z,0.00
2022-09-03T01:57:42.019Z,0.00
2022-09-03T01:58:40.741Z,0.00
2022-09-03T01:59:40.691Z,0.00
2022-09-03T02:00:40.731Z,0.00
2022-09-03T02:01:40.740Z,0.00
2022-09-03T02:02:40.732Z,0.00
2022-09-03T02:03:41.111Z,0.00
2022-09-03T02:04:40.665Z,0.00
2022-09-03T02:05:40.637Z,0.00
2022-09-03T02:06:40.628Z,0.00
2022-09-03T02:07:40.609Z,0.00
2022-09-03T02:08:40.633Z,0.00
2022-09-03T02:09:40.626Z,0.00
2022-09-03T02:10:40.609Z,0.00
2022-09-03T02:11:40.580Z,0.00
2022-09-03T02:12:40.598Z,0.00
2022-09-03T02:13:40.578Z,0.00
2022-09-03T02:14:40.580Z,0.00
2022-09-03T02:15:40.588Z,0.00
2022-09-03T02:16:40.516Z,0.00
2022-09-03T02:17:40.517Z,0.00
2022-09-03T02:18:40.514Z,0.00
2022-09-03T02:19:40.492Z,0.00
2022-09-03T02:20:40.485Z,0.00
2022-09-03T02:21:40.460Z,0.00
2022-09-03T02:22:40.460Z,0.00
2022-09-03T02:23:40.470Z,0.00
2022-09-03T02:24:40.432Z,0.00
2022-09-03T02:25:40.425Z,0.00
2022-09-03T02:26:40.429Z,0.00
2022-09-03T02:27:40.448Z,0.00
2022-09-03T02:28:40.388Z,0.00
2022-09-03T02:29:40.404Z,0.00
2022-09-03T02:30:40.423Z,0.00
2022-09-03T02:31:40.359Z,0.00
2022-09-03T02:32:40.360Z,0.00
2022-09-03T02:33:40.341Z,0.00
2022-09-03T02:34:40.402Z,0.00
2022-09-03T02:35:40.303Z,0.00
2022-09-03T02:36:40.312Z,0.00
2022-09-03T02:37:40.289Z,0.00
2022-09-03T02:38:40.292Z,0.00
2022-09-03T02:39:40.298Z,0.00
2022-09-03T02:40:40.321Z,0.00
2022-09-03T02:41:40.250Z,0.00
2022-09-03T02:42:40.285Z,0.00
2022-09-03T02:43:40.224Z,0.00
2022-09-03T02:44:40.242Z,0.00
2022-09-03T02:45:40.277Z,0.00
2022-09-03T02:46:40.304Z,0.00
2022-09-03T02:47:40.182Z,0.00
2022-09-03T02:48:40.180Z,0.00
2022-09-03T02:49:40.178Z,0.00
2022-09-03T02:50:40.186Z,0.00
2022-09-03T02:51:40.136Z,0.00
2022-09-03T02:52:40.152Z,0.00
2022-09-03T02:53:40.142Z,0.00
2022-09-03T02:54:40.154Z,0.00
2022-09-03T02:55:40.119Z,0.00
2022-09-03T02:56:40.146Z,0.00
2022-09-03T02:57:40.136Z,0.00
2022-09-03T02:58:40.127Z,0.00
2022-09-03T02:59:40.060Z,0.00
2022-09-03T03:00:40.058Z,0.00
2022-09-03T03:01:40.122Z,0.00
2022-09-03T03:02:40.188Z,0.00
2022-09-03T03:03:40.034Z,0.00
2022-09-03T03:04:40.032Z,0.00
2022-09-03T03:05:40.010Z,0.00
2022-09-03T03:06:40.047Z,0.00
2022-09-03T03:07:39.972Z,0.00
2022-09-03T03:08:39.969Z,0.00
2022-09-03T03:09:39.953Z,0.00
2022-09-03T03:10:39.981Z,0.00
2022-09-03T03:11:39.928Z,0.00
2022-09-03T03:12:39.928Z,0.00
2022-09-03T03:13:39.912Z,0.00
2022-09-03T03:14:39.914Z,0.00
2022-09-03T03:15:39.896Z,0.00
2022-09-03T03:16:39.963Z,0.00
2022-09-03T03:17:39.878Z,0.00
2022-09-03T03:18:39.876Z,0.00
2022-09-03T03:19:39.847Z,0.00
2022-09-03T03:20:39.844Z,0.00
2022-09-03T03:21:39.840Z,0.00
2022-09-03T03:22:39.831Z,0.00
2022-09-03T03:23:39.817Z,0.00
2022-09-03T03:24:39.818Z,0.00
2022-09-03T03:25:39.800Z,0.00
2022-09-03T03:26:39.814Z,0.00
2022-09-03T03:27:39.759Z,0.00
2022-09-03T03:28:39.760Z,0.00
2022-09-03T03:29:39.748Z,0.00
2022-09-03T03:30:39.818Z,0.00
2022-09-03T03:31:39.736Z,0.00
2022-09-03T03:32:39.732Z,0.00
2022-09-03T03:33:39.710Z,0.00
2022-09-03T03:34:39.707Z,0.00
2022-09-03T03:35:39.710Z,0.00
2022-09-03T03:36:39.754Z,0.00
2022-09-03T03:37:39.679Z,0.00
2022-09-03T03:38:39.673Z,0.00
2022-09-03T03:39:39.688Z,0.00
2022-09-03T03:40:39.644Z,0.00
2022-09-03T03:41:39.655Z,0.00
2022-09-03T03:42:39.640Z,0.00
2022-09-03T03:43:39.597Z,0.00
2022-09-03T03:44:39.596Z,0.00
2022-09-03T03:45:39.628Z,0.00
2022-09-03T03:46:39.611Z,0.00
2022-09-03T03:47:39.646Z,0.00
2022-09-03T03:48:39.585Z,0.00
2022-09-03T03:49:39.542Z,0.00
2022-09-03T03:50:39.540Z,0.00
2022-09-03T03:51:39.508Z,0.00
2022-09-03T03:52:39.569Z,0.00
2022-09-03T03:53:39.491Z,0.00
2022-09-03T03:54:39.492Z,0.00
2022-09-03T03:55:39.477Z,0.00
2022-09-03T03:56:39.476Z,0.00
2022-09-03T03:57:39.483Z,0.00
2022-09-03T03:58:39.478Z,0.00
2022-09-03T03:59:39.527Z,0.00
2022-09-03T04:00:39.425Z,0.00
2022-09-03T04:01:39.460Z,0.00
2022-09-03T04:02:39.497Z,0.00
2022-09-03T04:03:39.390Z,0.00
2022-09-03T04:04:39.388Z,0.00
2022-09-03T04:05:46.184Z,0.00
2022-09-03T04:06:39.378Z,0.00
2022-09-03T04:07:39.724Z,0.00
2022-09-03T04:08:39.353Z,0.00
2022-09-03T04:09:39.352Z,0.00
2022-09-03T04:10:39.412Z,0.00
2022-09-03T04:11:39.306Z,0.00
2022-09-03T04:12:39.280Z,1.00
2022-09-03T04:13:39.298Z,0.00
2022-09-03T04:14:39.304Z,0.00
2022-09-03T04:15:39.291Z,0.00
2022-09-03T04:16:39.318Z,0.00
2022-09-03T04:17:39.475Z,1.00
2022-09-03T04:18:39.265Z,0.00
2022-09-03T04:19:39.235Z,0.00
2022-09-03T04:20:39.229Z,0.00
2022-09-03T04:21:39.168Z,2.00
2022-09-03T04:22:39.150Z,1.00
2022-09-03T04:23:39.150Z,5.00
2022-09-03T04:24:39.126Z,2.00
2022-09-03T04:25:39.113Z,2.00
2022-09-03T04:26:39.114Z,2.00
2022-09-03T04:27:39.088Z,3.00
2022-09-03T04:28:39.175Z,4.00
2022-09-03T04:29:39.067Z,4.00
2022-09-03T04:30:39.124Z,7.00
2022-09-03T04:31:39.071Z,7.00
2022-09-03T04:32:39.046Z,12.00
2022-09-03T04:33:39.083Z,14.00
2022-09-03T04:34:39.051Z,17.00
2022-09-03T04:35:39.009Z,20.00
2022-09-03T04:36:39.007Z,23.00
2022-09-03T04:37:38.986Z,27.00
2022-09-03T04:38:39.003Z,31.00
2022-09-03T04:39:39.052Z,36.00
2022-09-03T04:40:38.969Z,43.00
2022-09-03T04:41:38.953Z,46.00
2022-09-03T04:42:38.946Z,55.00
2022-09-03T04:43:39.090Z,66.00
2022-09-03T04:44:38.966Z,69.00
2022-09-03T04:45:38.965Z,78.00
2022-09-03T04:46:38.907Z,94.00
2022-09-03T04:47:38.889Z,99.00
2022-09-03T04:48:38.931Z,110.00
2022-09-03T04:49:38.892Z,117.00
2022-09-03T04:50:38.872Z,128.00
2022-09-03T04:51:38.838Z,140.00
2022-09-03T04:52:38.840Z,156.00
2022-09-03T04:53:38.855Z,167.00
2022-09-03T04:54:38.827Z,179.00
2022-09-03T04:55:38.797Z,191.00
2022-09-03T04:56:38.867Z,205.00
2022-09-03T04:57:38.805Z,218.00
2022-09-03T04:58:38.804Z,235.00
2022-09-03T04:59:38.755Z,245.00
2022-09-03T05:00:38.764Z,262.00
2022-09-03T05:01:38.876Z,278.00
2022-09-03T05:02:38.792Z,293.00
2022-09-03T05:03:38.732Z,309.00
2022-09-03T05:04:38.711Z,321.00
2022-09-03T05:05:38.693Z,338.00
2022-09-03T05:06:38.695Z,352.00
2022-09-03T05:07:38.779Z,363.00
2022-09-03T05:08:38.698Z,374.00
2022-09-03T05:09:38.676Z,397.00
2022-09-03T05:10:38.652Z,411.00
2022-09-03T05:11:38.673Z,429.00
2022-09-03T05:12:38.748Z,442.00
2022-09-03T05:13:38.756Z,459.00
2022-09-03T05:14:38.645Z,474.00
2022-09-03T05:15:38.591Z,490.00
2022-09-03T05:16:38.644Z,495.00
2022-09-03T05:17:38.575Z,502.00
2022-09-03T05:18:38.587Z,509.00
2022-09-03T05:19:38.661Z,514.00
2022-09-03T05:20:38.563Z,519.00
2022-09-03T05:21:38.575Z,531.00
2022-09-03T05:22:38.549Z,549.00
2022-09-03T05:23:38.562Z,562.00
2022-09-03T05:24:38.506Z,576.00
2022-09-03T05:25:38.499Z,595.00
2022-09-03T05:26:38.486Z,620.00
2022-09-03T05:27:38.482Z,645.00
2022-09-03T05:28:38.465Z,664.00
2022-09-03T05:29:38.542Z,682.00
2022-09-03T05:30:38.447Z,700.00
2022-09-03T05:31:38.514Z,719.00
2022-09-03T05:32:38.421Z,740.00
2022-09-03T05:33:38.436Z,760.00
2022-09-03T05:34:38.428Z,773.00
2022-09-03T05:35:38.401Z,799.00
2022-09-03T05:36:38.414Z,812.00
2022-09-03T05:37:38.393Z,819.00
2022-09-03T05:38:38.360Z,827.00
2022-09-03T05:39:38.447Z,841.00
2022-09-03T05:40:38.350Z,857.00
2022-09-03T05:41:38.340Z,868.00
2022-09-03T05:42:38.319Z,879.00
2022-09-03T05:43:38.350Z,891.00
2022-09-03T05:44:38.315Z,909.00
2022-09-03T05:45:38.357Z,934.00
2022-09-03T05:46:38.281Z,957.00
2022-09-03T05:47:38.292Z,977.00
2022-09-03T05:48:38.278Z,988.00
2022-09-03T05:49:38.260Z,1007.00
2022-09-03T05:50:38.264Z,1017.00
2022-09-03T05:51:38.273Z,1017.00
2022-09-03T05:52:38.231Z,1012.00
2022-09-03T05:53:38.265Z,1034.00
2022-09-03T05:54:38.192Z,1073.00
2022-09-03T05:55:38.224Z,1093.00
2022-09-03T05:56:38.222Z,1109.00
2022-09-03T05:57:38.184Z,1112.00
2022-09-03T05:58:38.180Z,1115.00
2022-09-03T05:59:38.171Z,1145.00
2022-09-03T06:00:38.146Z,1155.00
2022-09-03T06:01:38.308Z,1109.00
2022-09-03T06:02:38.229Z,1156.00
2022-09-03T06:03:38.467Z,1158.00
2022-09-03T06:04:38.091Z,1198.00
2022-09-03T06:05:38.116Z,1138.00
2022-09-03T06:06:38.102Z,1089.00
2022-09-03T06:07:38.160Z,1093.00
2022-09-03T06:08:38.066Z,1131.00
2022-09-03T06:09:38.095Z,1169.00
2022-09-03T06:10:40.995Z,1180.00
2022-09-03T06:11:38.026Z,1186.00
2022-09-03T06:12:38.012Z,1143.00
2022-09-03T06:13:38.011Z,1269.00
2022-09-03T06:14:38.038Z,1347.00
2022-09-03T06:15:38.004Z,1353.00
2022-09-03T06:16:38.056Z,1307.00
2022-09-03T06:17:37.963Z,1363.00
2022-09-03T06:18:38.004Z,1424.00
2022-09-03T06:19:37.979Z,1430.00
2022-09-03T06:20:38.110Z,1291.00
2022-09-03T06:21:37.940Z,1320.00
2022-09-03T06:22:37.940Z,1398.00
2022-09-03T06:23:37.901Z,1407.00
2022-09-03T06:24:37.897Z,1419.00
2022-09-03T06:25:37.905Z,1436.00
2022-09-03T06:26:37.853Z,1498.00
2022-09-03T06:27:37.867Z,1481.00
2022-09-03T06:28:37.843Z,1529.00
2022-09-03T06:29:38.203Z,1483.00
2022-09-03T06:30:37.831Z,1441.00
2022-09-03T06:31:37.974Z,1501.00
2022-09-03T06:32:37.859Z,1549.00
2022-09-03T06:33:37.797Z,1492.00
2022-09-03T06:34:37.777Z,1454.00
2022-09-03T06:35:42.857Z,1466.00
2022-09-03T06:36:37.818Z,1458.00
2022-09-03T06:37:37.871Z,1440.00
2022-09-03T06:38:37.785Z,1487.00
2022-09-03T06:39:37.931Z,1592.00
2022-09-03T06:40:37.748Z,1560.00
2022-09-03T06:41:37.722Z,1570.00
2022-09-03T06:42:37.715Z,1483.00
2022-09-03T06:43:37.821Z,1613.00
2022-09-03T06:44:37.698Z,1723.00
2022-09-03T06:45:37.733Z,1683.00
2022-09-03T06:46:37.692Z,1734.00
2022-09-03T06:47:37.675Z,1608.00
2022-09-03T06:48:37.752Z,1724.00
2022-09-03T06:49:37.631Z,1725.00
2022-09-03T06:50:37.610Z,1782.00
2022-09-03T06:51:37.672Z,1820.00
2022-09-03T06:52:37.726Z,1865.00
2022-09-03T06:53:37.668Z,1852.00
2022-09-03T06:54:37.856Z,1944.00
2022-09-03T06:55:37.611Z,1790.00
2022-09-03T06:56:40.512Z,1729.00
2022-09-03T06:57:37.591Z,1918.00
2022-09-03T06:58:37.611Z,2023.00
2022-09-03T06:59:37.610Z,1971.00
2022-09-03T07:00:37.673Z,2015.00
2022-09-03T07:01:37.654Z,2006.00
2022-09-03T07:02:39.719Z,2059.00
2022-09-03T07:03:37.654Z,2045.00
2022-09-03T07:04:37.499Z,2063.00
2022-09-03T07:05:37.458Z,2151.00
2022-09-03T07:06:37.463Z,2199.00
2022-09-03T07:07:37.456Z,2215.00
2022-09-03T07:08:37.682Z,2263.00
2022-09-03T07:09:37.452Z,2277.00
2022-09-03T07:10:37.548Z,2301.00
2022-09-03T07:11:37.428Z,2302.00
2022-09-03T07:12:37.396Z,2348.00
2022-09-03T07:13:37.555Z,2316.00
2022-09-03T07:14:37.354Z,2369.00
2022-09-03T07:15:37.388Z,2346.00
2022-09-03T07:16:37.479Z,2348.00
2022-09-03T07:17:37.381Z,2370.00
2022-09-03T07:18:37.337Z,2403.00
2022-09-03T07:19:37.344Z,2388.00
2022-09-03T07:20:37.360Z,2405.00
2022-09-03T07:21:37.306Z,2423.00
2022-09-03T07:22:37.271Z,2432.00
2022-09-03T07:23:37.296Z,2440.00
2022-09-03T07:24:37.271Z,2426.00
2022-09-03T07:25:37.264Z,2446.00
2022-09-03T07:26:37.383Z,2441.00
2022-09-03T07:27:37.345Z,2443.00
2022-09-03T07:28:37.283Z,2466.00
2022-09-03T07:29:37.286Z,2448.00
2022-09-03T07:30:37.259Z,2471.00
2022-09-03T07:31:37.324Z,2455.00
2022-09-03T07:32:37.283Z,2482.00
2022-09-03T07:33:37.170Z,2491.00
2022-09-03T07:34:37.315Z,2497.00
2022-09-03T07:35:37.310Z,2509.00
2022-09-03T07:36:37.151Z,2510.00
2022-09-03T07:37:37.168Z,2526.00
2022-09-03T07:38:37.125Z,2533.00
2022-09-03T07:39:37.146Z,2558.00
2022-09-03T07:40:37.139Z,2539.00
2022-09-03T07:41:37.231Z,2559.00
2022-09-03T07:42:37.474Z,2554.00
2022-09-03T07:43:37.096Z,2572.00
2022-09-03T07:44:37.106Z,2592.00
2022-09-03T07:45:37.048Z,2596.00
2022-09-03T07:46:37.171Z,2595.00
2022-09-03T07:47:37.035Z,2609.00
2022-09-03T07:48:37.679Z,2607.00
2022-09-03T07:49:37.011Z,2610.00
2022-09-03T07:50:36.988Z,2635.00
2022-09-03T07:51:36.993Z,2628.00
2022-09-03T07:52:36.974Z,2623.00
2022-09-03T07:53:36.970Z,2643.00
2022-09-03T07:54:36.947Z,2680.00
2022-09-03T07:55:36.961Z,2655.00
2022-09-03T07:56:36.934Z,2675.00
2022-09-03T07:57:36.941Z,2699.00
2022-09-03T07:58:36.905Z,2671.00
2022-09-03T07:59:36.907Z,2720.00
2022-09-03T08:00:37.037Z,2704.00
2022-09-03T08:01:36.882Z,2749.00
2022-09-03T08:02:36.908Z,2745.00
2022-09-03T08:03:36.916Z,2754.00
2022-09-03T08:04:36.866Z,2740.00
2022-09-03T08:05:37.311Z,2755.00
2022-09-03T08:06:36.888Z,2780.00
2022-09-03T08:07:36.901Z,2776.00
2022-09-03T08:08:36.853Z,2800.00
2022-09-03T08:09:36.801Z,2798.00
2022-09-03T08:10:36.834Z,2788.00
2022-09-03T08:11:36.772Z,2837.00
2022-09-03T08:12:36.838Z,2823.00
2022-09-03T08:13:37.153Z,2821.00
2022-09-03T08:14:36.773Z,2841.00
2022-09-03T08:15:36.750Z,2842.00
2022-09-03T08:16:36.885Z,2862.00
2022-09-03T08:17:36.810Z,2866.00
2022-09-03T08:18:36.694Z,2875.00
2022-09-03T08:19:36.725Z,2884.00
2022-09-03T08:20:36.671Z,2890.00
2022-09-03T08:21:36.664Z,2946.00
2022-09-03T08:22:36.644Z,2846.00
2022-09-03T08:23:36.693Z,2908.00
2022-09-03T08:24:36.636Z,2926.00
2022-09-03T08:25:36.659Z,2898.00
2022-09-03T08:26:36.663Z,2922.00
2022-09-03T08:27:36.611Z,2929.00
2022-09-03T08:28:36.611Z,2917.00
2022-09-03T08:29:36.637Z,2943.00
2022-09-03T08:30:36.591Z,2945.00
2022-09-03T08:31:36.747Z,2982.00
2022-09-03T08:32:36.707Z,2968.00
2022-09-03T08:33:36.545Z,2973.00
2022-09-03T08:34:36.549Z,2987.00
2022-09-03T08:35:36.551Z,3005.00
2022-09-03T08:36:36.529Z,2976.00
2022-09-03T08:37:36.503Z,3010.00
2022-09-03T08:38:36.483Z,3033.00
2022-09-03T08:39:36.583Z,2943.00
2022-09-03T08:40:36.467Z,3107.00
2022-09-03T08:41:36.466Z,3043.00
2022-09-03T08:42:36.490Z,3042.00
2022-09-03T08:43:36.467Z,3062.00
2022-09-03T08:44:36.446Z,3081.00
2022-09-03T08:45:36.427Z,3081.00
2022-09-03T08:46:36.507Z,3089.00
2022-09-03T08:47:36.430Z,3090.00
2022-09-03T08:48:36.456Z,3092.00
2022-09-03T08:49:36.396Z,3087.00
2022-09-03T08:50:36.359Z,3129.00
2022-09-03T08:51:36.356Z,3135.00
2022-09-03T08:52:36.334Z,3119.00
2022-09-03T08:53:36.355Z,3121.00
2022-09-03T08:54:36.344Z,3145.00
2022-09-03T08:55:36.314Z,3148.00
2022-09-03T08:56:36.317Z,3111.00
2022-09-03T08:57:36.459Z,3124.00
2022-09-03T08:58:36.333Z,3153.00
2022-09-03T08:59:36.328Z,3160.00
2022-09-03T09:00:36.287Z,3165.00
2022-09-03T09:01:36.463Z,3189.00
2022-09-03T09:02:36.306Z,3205.00
2022-09-03T09:03:36.237Z,3204.00
2022-09-03T09:04:36.204Z,3198.00
2022-09-03T09:05:36.359Z,3201.00
2022-09-03T09:06:36.187Z,3222.00
2022-09-03T09:07:36.258Z,3218.00
2022-09-03T09:08:36.174Z,3230.00
2022-09-03T09:09:36.167Z,3239.00
2022-09-03T09:10:36.175Z,3246.00
2022-09-03T09:11:36.159Z,3257.00
2022-09-03T09:12:42.770Z,3259.00
2022-09-03T09:13:36.128Z,3255.00
2022-09-03T09:14:36.105Z,3270.00
2022-09-03T09:15:36.259Z,3263.00
2022-09-03T09:16:36.223Z,3274.00
2022-09-03T09:17:36.085Z,3269.00
2022-09-03T09:18:36.085Z,3284.00
2022-09-03T09:19:36.136Z,3299.00
2022-09-03T09:20:36.137Z,3288.00
2022-09-03T09:21:36.049Z,3306.00
2022-09-03T09:22:36.093Z,3329.00
2022-09-03T09:23:36.033Z,3322.00
2022-09-03T09:24:36.013Z,3350.00
2022-09-03T09:25:36.017Z,3349.00
2022-09-03T09:26:36.004Z,3360.00
2022-09-03T09:27:35.992Z,3363.00
2022-09-03T09:28:35.985Z,3397.00
2022-09-03T09:29:37.912Z,3384.00
2022-09-03T09:30:35.960Z,3375.00
2022-09-03T09:31:36.080Z,3416.00
2022-09-03T09:32:35.928Z,3428.00
2022-09-03T09:33:35.926Z,3439.00
2022-09-03T09:34:35.922Z,3441.00
2022-09-03T09:35:35.913Z,3438.00
2022-09-03T09:36:35.922Z,3429.00
2022-09-03T09:37:35.889Z,3465.00
2022-09-03T09:38:35.894Z,3451.00
2022-09-03T09:39:35.922Z,3472.00
2022-09-03T09:40:35.866Z,3481.00
2022-09-03T09:41:35.861Z,3465.00
2022-09-03T09:42:35.852Z,3479.00
2022-09-03T09:43:35.830Z,3480.00
2022-09-03T09:44:35.841Z,3493.00
2022-09-03T09:45:35.824Z,3469.00
2022-09-03T09:46:35.886Z,3480.00
2022-09-03T09:47:35.777Z,3520.00
2022-09-03T09:48:35.785Z,3563.00
2022-09-03T09:49:35.759Z,3513.00
2022-09-03T09:50:35.777Z,3535.00
2022-09-03T09:51:35.759Z,3525.00
2022-09-03T09:52:35.733Z,3493.00
2022-09-03T09:53:35.714Z,3596.00
2022-09-03T09:54:35.727Z,3520.00
2022-09-03T09:55:35.689Z,3601.00
2022-09-03T09:56:35.836Z,3549.00
2022-09-03T09:57:35.710Z,3571.00
2022-09-03T09:58:35.737Z,3594.00
2022-09-03T09:59:35.690Z,3626.00
2022-09-03T10:00:35.643Z,3597.00
2022-09-03T10:01:35.721Z,3635.00
2022-09-03T10:02:35.707Z,3622.00
2022-09-03T10:03:35.595Z,3619.00
2022-09-03T10:04:35.611Z,3684.00
2022-09-03T10:05:35.585Z,3699.00
2022-09-03T10:06:37.506Z,3726.00
2022-09-03T10:07:35.584Z,3736.00
2022-09-03T10:08:35.581Z,3730.00
2022-09-03T10:09:35.547Z,3769.00
2022-09-03T10:10:35.548Z,3779.00
2022-09-03T10:11:35.526Z,3781.00
2022-09-03T10:12:35.539Z,3814.00
2022-09-03T10:13:35.586Z,3828.00
2022-09-03T10:14:35.506Z,3813.00
2022-09-03T10:15:35.498Z,3852.00
2022-09-03T10:16:35.606Z,3863.00
2022-09-03T10:17:37.179Z,3859.00
2022-09-03T10:18:35.475Z,3901.00
2022-09-03T10:19:35.447Z,3887.00
2022-09-03T10:20:35.435Z,3930.00
2022-09-03T10:21:35.450Z,3922.00
2022-09-03T10:22:35.426Z,3938.00
2022-09-03T10:23:35.527Z,3979.00
2022-09-03T10:24:35.402Z,3984.00
2022-09-03T10:25:35.852Z,3983.00
2022-09-03T10:26:35.408Z,4047.00
2022-09-03T10:27:35.401Z,4044.00
2022-09-03T10:28:35.436Z,4115.00
2022-09-03T10:29:35.342Z,4106.00
2022-09-03T10:30:35.360Z,4128.00
2022-09-03T10:31:35.465Z,4182.00
2022-09-03T10:32:39.018Z,4225.00
2022-09-03T10:33:35.311Z,4259.00
2022-09-03T10:34:35.351Z,4308.00
2022-09-03T10:35:35.290Z,4334.00
2022-09-03T10:36:35.284Z,4333.00
2022-09-03T10:37:35.283Z,4330.00
2022-09-03T10:38:35.264Z,4396.00
2022-09-03T10:39:42.802Z,4413.00
2022-09-03T10:40:35.999Z,4519.00
2022-09-03T10:41:35.348Z,4474.00
2022-09-03T10:42:35.238Z,4499.00
2022-09-03T10:43:35.220Z,4546.00
2022-09-03T10:44:35.239Z,4541.00
2022-09-03T10:45:37.617Z,4572.00
2022-09-03T10:46:35.261Z,4620.00
2022-09-03T10:47:35.199Z,4669.00
2022-09-03T10:48:35.186Z,4702.00
2022-09-03T10:49:35.207Z,4727.00
2022-09-03T10:50:35.156Z,4772.00
2022-09-03T10:51:35.186Z,4784.00
2022-09-03T10:52:35.185Z,4874.00
2022-09-03T10:53:35.140Z,4920.00
2022-09-03T10:54:35.216Z,5005.00
2022-09-03T10:55:35.103Z,5077.00
2022-09-03T10:56:35.096Z,5122.00
2022-09-03T10:57:35.083Z,5192.00
2022-09-03T10:58:35.119Z,5237.00
2022-09-03T10:59:35.068Z,5388.00
2022-09-03T11:00:35.083Z,5375.00
2022-09-03T11:01:35.162Z,5484.00
2022-09-03T11:02:35.203Z,5444.00
2022-09-03T11:03:35.323Z,5601.00
2022-09-03T11:04:36.339Z,5680.00
2022-09-03T11:05:35.019Z,5822.00
2022-09-03T11:06:35.003Z,5768.00
2022-09-03T11:07:35.526Z,5795.00
2022-09-03T11:08:34.959Z,5824.00
2022-09-03T11:09:34.992Z,5891.00
2022-09-03T11:10:34.988Z,6045.00
2022-09-03T11:11:34.961Z,5411.00
2022-09-03T11:12:35.000Z,4047.00
2022-09-03T11:13:34.907Z,8248.00
2022-09-03T11:14:35.290Z,16374.00
2022-09-03T11:15:34.927Z,24872.00
2022-09-03T11:16:34.917Z,30575.00
2022-09-03T11:17:34.860Z,34730.00
2022-09-03T11:18:34.877Z,36359.00
2022-09-03T11:19:34.843Z,37695.00
2022-09-03T11:20:34.825Z,35916.00
2022-09-03T11:21:34.812Z,35301.00
2022-09-03T11:22:34.819Z,31836.00
2022-09-03T11:23:34.842Z,29426.00
2022-09-03T11:24:34.797Z,25531.00
2022-09-03T11:25:34.771Z,24256.00
2022-09-03T11:26:34.765Z,31653.00
2022-09-03T11:27:34.763Z,38427.00
2022-09-03T11:28:34.766Z,40945.00
2022-09-03T11:29:34.767Z,34249.00
2022-09-03T11:30:34.842Z,29790.00
2022-09-03T11:31:34.711Z,35671.00
2022-09-03T11:32:34.703Z,35586.00
2022-09-03T11:33:34.721Z,27818.00
2022-09-03T11:34:34.702Z,26838.00
2022-09-03T11:35:34.673Z,34917.00
2022-09-03T11:36:34.685Z,70400.00
2022-09-03T11:37:34.652Z,36080.00
2022-09-03T11:38:34.670Z,32128.00
2022-09-03T11:39:34.725Z,34318.00
2022-09-03T11:40:34.742Z,32802.00
2022-09-03T11:41:34.624Z,35191.00
2022-09-03T11:42:34.702Z,40680.00
2022-09-03T11:43:34.595Z,38183.00
2022-09-03T11:44:34.602Z,39532.00
2022-09-03T11:45:34.592Z,35921.00
2022-09-03T11:46:34.716Z,30569.00
2022-09-03T11:47:34.558Z,34321.00
2022-09-03T11:48:34.712Z,72377.00
2022-09-03T11:49:34.601Z,71369.00
2022-09-03T11:50:34.534Z,34075.00
2022-09-03T11:51:34.524Z,36079.00
2022-09-03T11:52:34.510Z,36016.00
2022-09-03T11:53:34.539Z,41834.00
2022-09-03T11:54:34.531Z,71753.00
2022-09-03T11:55:43.370Z,71644.00
2022-09-03T11:56:34.519Z,32385.00
2022-09-03T11:57:34.491Z,35896.00
2022-09-03T11:58:34.461Z,71007.00
2022-09-03T11:59:34.480Z,37550.00
2022-09-03T12:00:34.506Z,34561.00
2022-09-03T12:01:34.444Z,41585.00
2022-09-03T12:02:34.487Z,33493.00
2022-09-03T12:03:34.400Z,33091.00
2022-09-03T12:04:34.442Z,72664.00
2022-09-03T12:05:34.535Z,74248.00
2022-09-03T12:06:34.382Z,75052.00
2022-09-03T12:07:34.379Z,73607.00
2022-09-03T12:08:34.362Z,71613.00
2022-09-03T12:09:34.404Z,72332.00
2022-09-03T12:10:34.373Z,72775.00
2022-09-03T12:11:34.323Z,73168.00
2022-09-03T12:12:34.372Z,72873.00
2022-09-03T12:13:34.347Z,73841.00
2022-09-03T12:14:34.391Z,74326.00
2022-09-03T12:15:34.352Z,74381.00
2022-09-03T12:16:34.316Z,74656.00
2022-09-03T12:17:34.280Z,73327.00
2022-09-03T12:18:34.281Z,73014.00
2022-09-03T12:19:34.545Z,73363.00
2022-09-03T12:20:34.348Z,72863.00
2022-09-03T12:21:34.244Z,73096.00
2022-09-03T12:22:34.275Z,75290.00
2022-09-03T12:23:34.219Z,77186.00
2022-09-03T12:24:37.747Z,77372.00
2022-09-03T12:25:34.241Z,77245.00
2022-09-03T12:26:34.205Z,74891.00
2022-09-03T12:27:34.181Z,72377.00
2022-09-03T12:28:34.194Z,71445.00
2022-09-03T12:29:35.241Z,71733.00
2022-09-03T12:30:34.214Z,72732.00